sensor_id;sensor_type;location;lat;lon;timestamp;temperature;humidity
67273;DHT22;54190;49.770;9.250;2022-07-04T00:00:10;19.80;94.70
67273;DHT22;54190;49.770;9.250;2022-07-04T00:02:38;19.80;94.70
67273;DHT22;54190;49.770;9.250;2022-07-04T00:05:05;19.70;95.10
67273;DHT22;54190;49.770;9.250;2022-07-04T00:07:34;19.80;95.30
67273;DHT22;54190;49.770;9.250;2022-07-04T00:10:00;19.90;95.60
67273;DHT22;54190;49.770;9.250;2022-07-04T00:12:26;19.80;95.70
67273;DHT22;54190;49.770;9.250;2022-07-04T00:14:52;19.80;95.90
67273;DHT22;54190;49.770;9.250;2022-07-04T00:17:17;19.70;95.90
67273;DHT22;54190;49.770;9.250;2022-07-04T00:19:43;19.70;96.00
67273;DHT22;54190;49.770;9.250;2022-07-04T00:22:08;19.70;96.30
67273;DHT22;54190;49.770;9.250;2022-07-04T00:24:34;19.50;96.40
67273;DHT22;54190;49.770;9.250;2022-07-04T00:27:00;19.40;96.70
67273;DHT22;54190;49.770;9.250;2022-07-04T00:29:26;19.40;96.90
67273;DHT22;54190;49.770;9.250;2022-07-04T00:31:51;19.40;97.10
67273;DHT22;54190;49.770;9.250;2022-07-04T00:34:17;19.30;97.30
67273;DHT22;54190;49.770;9.250;2022-07-04T00:36:43;19.20;97.30
67273;DHT22;54190;49.770;9.250;2022-07-04T00:39:08;19.20;97.50
67273;DHT22;54190;49.770;9.250;2022-07-04T00:41:34;19.10;97.40
67273;DHT22;54190;49.770;9.250;2022-07-04T00:44:05;19.10;97.70
67273;DHT22;54190;49.770;9.250;2022-07-04T00:46:32;19.00;97.90
67273;DHT22;54190;49.770;9.250;2022-07-04T00:48:58;18.90;98.00
67273;DHT22;54190;49.770;9.250;2022-07-04T00:51:24;18.90;98.00
67273;DHT22;54190;49.770;9.250;2022-07-04T00:53:51;18.80;98.40
67273;DHT22;54190;49.770;9.250;2022-07-04T00:56:19;18.70;98.50
67273;DHT22;54190;49.770;9.250;2022-07-04T00:58:44;18.60;98.70
67273;DHT22;54190;49.770;9.250;2022-07-04T01:01:10;18.50;98.90
67273;DHT22;54190;49.770;9.250;2022-07-04T01:03:36;18.50;99.00
67273;DHT22;54190;49.770;9.250;2022-07-04T01:06:02;18.50;98.90
67273;DHT22;54190;49.770;9.250;2022-07-04T01:08:28;18.50;99.10
67273;DHT22;54190;49.770;9.250;2022-07-04T01:10:54;18.50;99.30
67273;DHT22;54190;49.770;9.250;2022-07-04T01:13:21;18.40;99.40
67273;DHT22;54190;49.770;9.250;2022-07-04T01:15:47;18.50;99.60
67273;DHT22;54190;49.770;9.250;2022-07-04T01:18:13;18.50;99.60
67273;DHT22;54190;49.770;9.250;2022-07-04T01:20:39;18.40;99.70
67273;DHT22;54190;49.770;9.250;2022-07-04T01:23:05;18.30;99.90
67273;DHT22;54190;49.770;9.250;2022-07-04T01:25:31;18.20;99.90
67273;DHT22;54190;49.770;9.250;2022-07-04T01:27:59;18.20;99.90
67273;DHT22;54190;49.770;9.250;2022-07-04T01:30:26;18.20;99.90
67273;DHT22;54190;49.770;9.250;2022-07-04T01:32:52;18.10;99.90
67273;DHT22;54190;49.770;9.250;2022-07-04T01:35:18;18.10;99.90
67273;DHT22;54190;49.770;9.250;2022-07-04T01:37:44;18.10;99.90
67273;DHT22;54190;49.770;9.250;2022-07-04T01:40:11;18.20;99.90
67273;DHT22;54190;49.770;9.250;2022-07-04T01:42:38;18.20;99.90
67273;DHT22;54190;49.770;9.250;2022-07-04T01:45:05;18.10;99.90
67273;DHT22;54190;49.770;9.250;2022-07-04T01:47:31;18.10;99.90
67273;DHT22;54190;49.770;9.250;2022-07-04T01:49:57;18.00;99.90
67273;DHT22;54190;49.770;9.250;2022-07-04T01:52:22;17.90;99.90
67273;DHT22;54190;49.770;9.250;2022-07-04T01:54:48;17.90;99.90
67273;DHT22;54190;49.770;9.250;2022-07-04T01:57:14;17.90;99.90
67273;DHT22;54190;49.770;9.250;2022-07-04T01:59:39;17.80;99.90
67273;DHT22;54190;49.770;9.250;2022-07-04T02:02:24;17.80;99.90
67273;DHT22;54190;49.770;9.250;2022-07-04T02:04:50;17.90;99.90
67273;DHT22;54190;49.770;9.250;2022-07-04T02:07:16;17.90;99.90
67273;DHT22;54190;49.770;9.250;2022-07-04T02:09:42;17.80;99.90
67273;DHT22;54190;49.770;9.250;2022-07-04T02:12:08;17.70;99.90
67273;DHT22;54190;49.770;9.250;2022-07-04T02:14:52;17.70;99.90
67273;DHT22;54190;49.770;9.250;2022-07-04T02:17:18;17.80;99.90
67273;DHT22;54190;49.770;9.250;2022-07-04T02:19:44;17.80;99.90
67273;DHT22;54190;49.770;9.250;2022-07-04T02:22:10;17.80;99.90
67273;DHT22;54190;49.770;9.250;2022-07-04T02:24:36;17.70;99.90
67273;DHT22;54190;49.770;9.250;2022-07-04T02:27:02;17.50;99.90
67273;DHT22;54190;49.770;9.250;2022-07-04T02:29:28;17.40;99.90
67273;DHT22;54190;49.770;9.250;2022-07-04T02:31:54;17.40;99.90
67273;DHT22;54190;49.770;9.250;2022-07-04T02:34:20;17.40;99.90
67273;DHT22;54190;49.770;9.250;2022-07-04T02:36:46;17.50;99.90
67273;DHT22;54190;49.770;9.250;2022-07-04T02:39:12;17.50;99.90
67273;DHT22;54190;49.770;9.250;2022-07-04T02:41:38;17.40;99.90
67273;DHT22;54190;49.770;9.250;2022-07-04T02:44:04;17.40;99.90
67273;DHT22;54190;49.770;9.250;2022-07-04T02:46:30;17.40;99.90
67273;DHT22;54190;49.770;9.250;2022-07-04T02:48:59;17.30;99.90
67273;DHT22;54190;49.770;9.250;2022-07-04T02:51:24;17.20;99.90
67273;DHT22;54190;49.770;9.250;2022-07-04T02:53:50;17.10;99.90
67273;DHT22;54190;49.770;9.250;2022-07-04T02:56:16;17.10;99.90
67273;DHT22;54190;49.770;9.250;2022-07-04T02:58:42;17.10;99.90
67273;DHT22;54190;49.770;9.250;2022-07-04T03:01:08;17.00;99.90
67273;DHT22;54190;49.770;9.250;2022-07-04T03:03:35;17.00;99.90
67273;DHT22;54190;49.770;9.250;2022-07-04T03:06:01;17.10;99.90
67273;DHT22;54190;49.770;9.250;2022-07-04T03:08:27;17.10;99.90
67273;DHT22;54190;49.770;9.250;2022-07-04T03:10:53;17.10;99.90
67273;DHT22;54190;49.770;9.250;2022-07-04T03:13:19;17.00;99.90
67273;DHT22;54190;49.770;9.250;2022-07-04T03:15:45;17.00;99.90
67273;DHT22;54190;49.770;9.250;2022-07-04T03:18:11;17.00;99.90
67273;DHT22;54190;49.770;9.250;2022-07-04T03:20:37;17.00;99.90
67273;DHT22;54190;49.770;9.250;2022-07-04T03:23:03;17.00;99.90
67273;DHT22;54190;49.770;9.250;2022-07-04T03:25:29;17.00;99.90
67273;DHT22;54190;49.770;9.250;2022-07-04T03:27:54;16.90;99.90
67273;DHT22;54190;49.770;9.250;2022-07-04T03:30:20;16.90;99.90
67273;DHT22;54190;49.770;9.250;2022-07-04T03:32:46;16.90;99.90
67273;DHT22;54190;49.770;9.250;2022-07-04T03:35:12;16.90;99.90
67273;DHT22;54190;49.770;9.250;2022-07-04T03:37:38;16.90;99.90
67273;DHT22;54190;49.770;9.250;2022-07-04T03:40:05;16.90;99.90
67273;DHT22;54190;49.770;9.250;2022-07-04T03:42:31;16.80;99.90
67273;DHT22;54190;49.770;9.250;2022-07-04T03:44:56;16.70;99.90
67273;DHT22;54190;49.770;9.250;2022-07-04T03:47:22;16.70;99.90
67273;DHT22;54190;49.770;9.250;2022-07-04T03:49:48;16.70;99.90
67273;DHT22;54190;49.770;9.250;2022-07-04T03:52:14;16.70;99.90
67273;DHT22;54190;49.770;9.250;2022-07-04T03:54:40;16.70;99.90
67273;DHT22;54190;49.770;9.250;2022-07-04T03:57:06;16.70;99.90
67273;DHT22;54190;49.770;9.250;2022-07-04T03:59:31;16.70;99.90
67273;DHT22;54190;49.770;9.250;2022-07-04T04:01:57;16.60;99.90
67273;DHT22;54190;49.770;9.250;2022-07-04T04:04:23;16.70;99.90
67273;DHT22;54190;49.770;9.250;2022-07-04T04:07:07;16.70;99.90
67273;DHT22;54190;49.770;9.250;2022-07-04T04:09:33;16.60;99.90
67273;DHT22;54190;49.770;9.250;2022-07-04T04:11:58;16.60;99.90
67273;DHT22;54190;49.770;9.250;2022-07-04T04:14:24;16.70;99.90
67273;DHT22;54190;49.770;9.250;2022-07-04T04:16:51;16.70;99.90
67273;DHT22;54190;49.770;9.250;2022-07-04T04:19:17;16.60;99.90
67273;DHT22;54190;49.770;9.250;2022-07-04T04:21:42;16.60;99.90
67273;DHT22;54190;49.770;9.250;2022-07-04T04:24:08;16.60;99.90
67273;DHT22;54190;49.770;9.250;2022-07-04T04:26:34;16.50;99.90
67273;DHT22;54190;49.770;9.250;2022-07-04T04:29:00;16.50;99.90
67273;DHT22;54190;49.770;9.250;2022-07-04T04:31:26;16.60;99.90
67273;DHT22;54190;49.770;9.250;2022-07-04T04:33:52;16.60;99.90
67273;DHT22;54190;49.770;9.250;2022-07-04T04:36:17;16.70;99.90
67273;DHT22;54190;49.770;9.250;2022-07-04T04:38:43;16.70;99.90
67273;DHT22;54190;49.770;9.250;2022-07-04T04:41:09;16.80;99.90
67273;DHT22;54190;49.770;9.250;2022-07-04T04:43:35;16.80;99.90
67273;DHT22;54190;49.770;9.250;2022-07-04T04:46:00;16.80;99.90
67273;DHT22;54190;49.770;9.250;2022-07-04T04:48:26;16.80;99.90
67273;DHT22;54190;49.770;9.250;2022-07-04T04:50:52;16.90;99.90
67273;DHT22;54190;49.770;9.250;2022-07-04T04:53:17;16.80;99.90
67273;DHT22;54190;49.770;9.250;2022-07-04T04:55:43;16.80;99.90
67273;DHT22;54190;49.770;9.250;2022-07-04T04:58:10;16.90;99.90
67273;DHT22;54190;49.770;9.250;2022-07-04T05:00:36;16.90;99.90
67273;DHT22;54190;49.770;9.250;2022-07-04T05:03:01;17.00;99.90
67273;DHT22;54190;49.770;9.250;2022-07-04T05:05:27;17.00;99.90
67273;DHT22;54190;49.770;9.250;2022-07-04T05:07:53;17.10;99.90
67273;DHT22;54190;49.770;9.250;2022-07-04T05:10:18;17.00;99.90
67273;DHT22;54190;49.770;9.250;2022-07-04T05:12:44;17.00;99.90
67273;DHT22;54190;49.770;9.250;2022-07-04T05:15:11;17.00;99.90
67273;DHT22;54190;49.770;9.250;2022-07-04T05:17:37;17.00;99.90
67273;DHT22;54190;49.770;9.250;2022-07-04T05:20:03;17.10;99.90
67273;DHT22;54190;49.770;9.250;2022-07-04T05:22:29;17.00;99.90
67273;DHT22;54190;49.770;9.250;2022-07-04T05:24:54;17.00;99.90
67273;DHT22;54190;49.770;9.250;2022-07-04T05:27:20;17.10;99.90
67273;DHT22;54190;49.770;9.250;2022-07-04T05:29:46;17.10;99.90
67273;DHT22;54190;49.770;9.250;2022-07-04T05:32:12;17.10;99.90
67273;DHT22;54190;49.770;9.250;2022-07-04T05:34:37;17.10;99.90
67273;DHT22;54190;49.770;9.250;2022-07-04T05:37:03;17.20;99.90
67273;DHT22;54190;49.770;9.250;2022-07-04T05:39:30;17.20;99.90
67273;DHT22;54190;49.770;9.250;2022-07-04T05:41:56;17.20;99.90
67273;DHT22;54190;49.770;9.250;2022-07-04T05:44:21;17.30;99.90
67273;DHT22;54190;49.770;9.250;2022-07-04T05:46:47;17.30;99.90
67273;DHT22;54190;49.770;9.250;2022-07-04T05:49:13;17.30;99.90
67273;DHT22;54190;49.770;9.250;2022-07-04T05:51:38;17.30;99.90
67273;DHT22;54190;49.770;9.250;2022-07-04T05:54:04;17.30;99.90
67273;DHT22;54190;49.770;9.250;2022-07-04T05:56:30;17.40;99.90
67273;DHT22;54190;49.770;9.250;2022-07-04T05:58:56;17.40;99.90
67273;DHT22;54190;49.770;9.250;2022-07-04T06:01:21;17.40;99.90
67273;DHT22;54190;49.770;9.250;2022-07-04T06:03:47;17.40;99.90
67273;DHT22;54190;49.770;9.250;2022-07-04T06:06:13;17.40;99.90
67273;DHT22;54190;49.770;9.250;2022-07-04T06:08:39;17.40;99.90
67273;DHT22;54190;49.770;9.250;2022-07-04T06:11:05;17.40;99.90
67273;DHT22;54190;49.770;9.250;2022-07-04T06:13:30;17.40;99.90
67273;DHT22;54190;49.770;9.250;2022-07-04T06:15:56;17.40;99.90
67273;DHT22;54190;49.770;9.250;2022-07-04T06:18:22;17.40;99.90
67273;DHT22;54190;49.770;9.250;2022-07-04T06:20:48;17.50;99.90
67273;DHT22;54190;49.770;9.250;2022-07-04T06:23:13;17.60;99.90
67273;DHT22;54190;49.770;9.250;2022-07-04T06:25:39;17.70;99.90
67273;DHT22;54190;49.770;9.250;2022-07-04T06:28:05;17.70;99.90
67273;DHT22;54190;49.770;9.250;2022-07-04T06:30:31;17.80;99.90
67273;DHT22;54190;49.770;9.250;2022-07-04T06:32:57;17.90;99.90
67273;DHT22;54190;49.770;9.250;2022-07-04T06:35:30;17.90;99.90
67273;DHT22;54190;49.770;9.250;2022-07-04T06:38:18;17.90;99.90
67273;DHT22;54190;49.770;9.250;2022-07-04T06:40:45;18.00;99.90
67273;DHT22;54190;49.770;9.250;2022-07-04T06:43:11;18.10;99.90
67273;DHT22;54190;49.770;9.250;2022-07-04T06:45:37;18.20;99.90
67273;DHT22;54190;49.770;9.250;2022-07-04T06:48:04;18.20;99.90
67273;DHT22;54190;49.770;9.250;2022-07-04T06:50:32;18.30;99.90
67273;DHT22;54190;49.770;9.250;2022-07-04T06:53:08;18.40;99.90
67273;DHT22;54190;49.770;9.250;2022-07-04T06:55:38;18.40;99.90
67273;DHT22;54190;49.770;9.250;2022-07-04T06:58:05;18.60;99.90
67273;DHT22;54190;49.770;9.250;2022-07-04T07:00:31;18.80;99.90
67273;DHT22;54190;49.770;9.250;2022-07-04T07:02:58;18.90;99.90
67273;DHT22;54190;49.770;9.250;2022-07-04T07:05:25;19.00;99.90
67273;DHT22;54190;49.770;9.250;2022-07-04T07:07:50;19.00;99.90
67273;DHT22;54190;49.770;9.250;2022-07-04T07:10:19;19.00;99.90
67273;DHT22;54190;49.770;9.250;2022-07-04T07:12:45;19.10;99.90
67273;DHT22;54190;49.770;9.250;2022-07-04T07:15:10;19.20;99.90
67273;DHT22;54190;49.770;9.250;2022-07-04T07:17:36;19.40;99.90
67273;DHT22;54190;49.770;9.250;2022-07-04T07:20:03;19.60;99.90
67273;DHT22;54190;49.770;9.250;2022-07-04T07:22:29;19.70;99.30
67273;DHT22;54190;49.770;9.250;2022-07-04T07:24:54;19.90;98.70
67273;DHT22;54190;49.770;9.250;2022-07-04T07:27:21;19.90;98.50
67273;DHT22;54190;49.770;9.250;2022-07-04T07:29:46;20.10;98.30
67273;DHT22;54190;49.770;9.250;2022-07-04T07:32:12;20.10;98.30
67273;DHT22;54190;49.770;9.250;2022-07-04T07:34:38;20.30;98.50
67273;DHT22;54190;49.770;9.250;2022-07-04T07:37:03;20.40;98.10
67273;DHT22;54190;49.770;9.250;2022-07-04T07:39:29;20.50;97.40
67273;DHT22;54190;49.770;9.250;2022-07-04T07:41:55;20.70;97.60
67273;DHT22;54190;49.770;9.250;2022-07-04T07:44:21;20.70;96.50
67273;DHT22;54190;49.770;9.250;2022-07-04T07:46:46;20.60;97.50
67273;DHT22;54190;49.770;9.250;2022-07-04T07:49:12;20.60;96.80
67273;DHT22;54190;49.770;9.250;2022-07-04T07:51:38;20.60;97.40
67273;DHT22;54190;49.770;9.250;2022-07-04T07:54:04;20.60;97.80
67273;DHT22;54190;49.770;9.250;2022-07-04T07:56:29;20.80;97.50
67273;DHT22;54190;49.770;9.250;2022-07-04T07:58:55;21.00;96.40
67273;DHT22;54190;49.770;9.250;2022-07-04T08:01:21;21.20;95.50
67273;DHT22;54190;49.770;9.250;2022-07-04T08:03:47;21.50;94.70
67273;DHT22;54190;49.770;9.250;2022-07-04T08:06:32;21.40;93.60
67273;DHT22;54190;49.770;9.250;2022-07-04T08:08:58;21.50;94.40
67273;DHT22;54190;49.770;9.250;2022-07-04T08:11:24;21.70;94.70
67273;DHT22;54190;49.770;9.250;2022-07-04T08:13:50;21.90;95.00
67273;DHT22;54190;49.770;9.250;2022-07-04T08:16:16;22.10;93.40
67273;DHT22;54190;49.770;9.250;2022-07-04T08:18:42;22.10;92.80
67273;DHT22;54190;49.770;9.250;2022-07-04T08:21:08;22.10;93.70
67273;DHT22;54190;49.770;9.250;2022-07-04T08:23:34;22.10;92.60
67273;DHT22;54190;49.770;9.250;2022-07-04T08:26:00;22.20;91.90
67273;DHT22;54190;49.770;9.250;2022-07-04T08:28:27;22.30;92.60
67273;DHT22;54190;49.770;9.250;2022-07-04T08:30:53;22.50;92.60
67273;DHT22;54190;49.770;9.250;2022-07-04T08:33:19;22.60;91.40
67273;DHT22;54190;49.770;9.250;2022-07-04T08:35:45;22.70;91.40
67273;DHT22;54190;49.770;9.250;2022-07-04T08:38:11;22.80;89.90
67273;DHT22;54190;49.770;9.250;2022-07-04T08:40:37;22.80;89.90
67273;DHT22;54190;49.770;9.250;2022-07-04T08:43:03;22.60;87.10
67273;DHT22;54190;49.770;9.250;2022-07-04T08:45:31;22.50;87.70
67273;DHT22;54190;49.770;9.250;2022-07-04T08:48:08;22.50;88.10
67273;DHT22;54190;49.770;9.250;2022-07-04T08:50:37;22.60;86.50
67273;DHT22;54190;49.770;9.250;2022-07-04T08:53:20;22.70;86.60
67273;DHT22;54190;49.770;9.250;2022-07-04T08:55:47;22.80;82.80
67273;DHT22;54190;49.770;9.250;2022-07-04T08:58:31;22.90;85.20
67273;DHT22;54190;49.770;9.250;2022-07-04T09:01:01;23.00;85.60
67273;DHT22;54190;49.770;9.250;2022-07-04T09:03:28;23.00;84.00
67273;DHT22;54190;49.770;9.250;2022-07-04T09:05:55;23.10;83.40
67273;DHT22;54190;49.770;9.250;2022-07-04T09:08:22;23.10;82.70
67273;DHT22;54190;49.770;9.250;2022-07-04T09:10:48;23.10;81.20
67273;DHT22;54190;49.770;9.250;2022-07-04T09:13:15;23.00;80.40
67273;DHT22;54190;49.770;9.250;2022-07-04T09:15:42;22.90;81.40
67273;DHT22;54190;49.770;9.250;2022-07-04T09:18:25;23.00;82.10
67273;DHT22;54190;49.770;9.250;2022-07-04T09:20:53;23.20;80.20
67273;DHT22;54190;49.770;9.250;2022-07-04T09:23:33;23.40;80.30
67273;DHT22;54190;49.770;9.250;2022-07-04T09:26:14;23.60;79.20
67273;DHT22;54190;49.770;9.250;2022-07-04T09:28:43;23.80;80.00
67273;DHT22;54190;49.770;9.250;2022-07-04T09:31:16;23.80;73.30
67273;DHT22;54190;49.770;9.250;2022-07-04T09:33:56;23.80;75.80
67273;DHT22;54190;49.770;9.250;2022-07-04T09:36:28;23.80;74.00
67273;DHT22;54190;49.770;9.250;2022-07-04T09:41:58;23.80;75.20
67273;DHT22;54190;49.770;9.250;2022-07-04T09:44:44;23.90;75.80
67273;DHT22;54190;49.770;9.250;2022-07-04T09:47:24;24.00;75.20
67273;DHT22;54190;49.770;9.250;2022-07-04T09:50:04;24.10;75.30
67273;DHT22;54190;49.770;9.250;2022-07-04T09:52:30;24.20;75.00
67273;DHT22;54190;49.770;9.250;2022-07-04T09:55:01;24.40;74.60
67273;DHT22;54190;49.770;9.250;2022-07-04T09:57:32;24.50;74.50
67273;DHT22;54190;49.770;9.250;2022-07-04T10:00:24;24.50;68.10
67273;DHT22;54190;49.770;9.250;2022-07-04T10:02:51;24.50;74.40
67273;DHT22;54190;49.770;9.250;2022-07-04T10:05:28;24.60;69.20
67273;DHT22;54190;49.770;9.250;2022-07-04T10:07:55;24.60;71.10
67273;DHT22;54190;49.770;9.250;2022-07-04T10:10:34;24.70;68.30
67273;DHT22;54190;49.770;9.250;2022-07-04T10:13:06;24.80;70.60
67273;DHT22;54190;49.770;9.250;2022-07-04T10:15:34;25.00;68.10
67273;DHT22;54190;49.770;9.250;2022-07-04T10:18:01;25.20;67.80
67273;DHT22;54190;49.770;9.250;2022-07-04T10:20:27;25.40;66.50
67273;DHT22;54190;49.770;9.250;2022-07-04T10:22:52;25.50;65.50
67273;DHT22;54190;49.770;9.250;2022-07-04T10:25:19;25.50;64.00
67273;DHT22;54190;49.770;9.250;2022-07-04T10:27:45;25.30;67.50
67273;DHT22;54190;49.770;9.250;2022-07-04T10:30:15;25.20;63.50
67273;DHT22;54190;49.770;9.250;2022-07-04T10:32:44;25.20;64.00
67273;DHT22;54190;49.770;9.250;2022-07-04T10:35:15;25.20;64.70
67273;DHT22;54190;49.770;9.250;2022-07-04T10:49:00;25.70;60.00
67273;DHT22;54190;49.770;9.250;2022-07-04T10:54:00;25.70;57.40
67273;DHT22;54190;49.770;9.250;2022-07-04T10:58:53;25.50;55.80
67273;DHT22;54190;49.770;9.250;2022-07-04T11:01:19;25.60;57.50
67273;DHT22;54190;49.770;9.250;2022-07-04T11:03:53;25.60;57.60
67273;DHT22;54190;49.770;9.250;2022-07-04T11:09:19;26.00;58.80
67273;DHT22;54190;49.770;9.250;2022-07-04T11:11:48;26.30;58.10
67273;DHT22;54190;49.770;9.250;2022-07-04T11:17:00;26.30;54.90
67273;DHT22;54190;49.770;9.250;2022-07-04T11:19:26;26.20;55.50
67273;DHT22;54190;49.770;9.250;2022-07-04T11:21:54;26.20;55.10
67273;DHT22;54190;49.770;9.250;2022-07-04T11:24:21;26.20;54.90
67273;DHT22;54190;49.770;9.250;2022-07-04T11:26:47;26.20;56.80
67273;DHT22;54190;49.770;9.250;2022-07-04T11:29:13;26.40;54.70
67273;DHT22;54190;49.770;9.250;2022-07-04T11:31:45;26.40;56.30
67273;DHT22;54190;49.770;9.250;2022-07-04T11:34:11;26.60;55.50
67273;DHT22;54190;49.770;9.250;2022-07-04T11:36:42;26.60;54.60
67273;DHT22;54190;49.770;9.250;2022-07-04T11:39:10;26.60;51.60
67273;DHT22;54190;49.770;9.250;2022-07-04T11:41:42;26.30;52.70
67273;DHT22;54190;49.770;9.250;2022-07-04T11:44:32;26.20;54.80
67273;DHT22;54190;49.770;9.250;2022-07-04T11:47:37;26.40;54.10
67273;DHT22;54190;49.770;9.250;2022-07-04T11:50:12;26.50;52.50
67273;DHT22;54190;49.770;9.250;2022-07-04T11:52:45;26.30;51.90
67273;DHT22;54190;49.770;9.250;2022-07-04T11:55:16;26.30;52.90
67273;DHT22;54190;49.770;9.250;2022-07-04T11:57:44;26.40;51.70
67273;DHT22;54190;49.770;9.250;2022-07-04T12:00:13;26.40;52.60
67273;DHT22;54190;49.770;9.250;2022-07-04T12:02:40;26.50;52.10
67273;DHT22;54190;49.770;9.250;2022-07-04T12:05:08;26.50;52.20
67273;DHT22;54190;49.770;9.250;2022-07-04T12:07:36;26.40;49.70
67273;DHT22;54190;49.770;9.250;2022-07-04T12:12:57;26.40;50.20
67273;DHT22;54190;49.770;9.250;2022-07-04T12:15:29;26.70;52.30
67273;DHT22;54190;49.770;9.250;2022-07-04T12:18:01;27.00;49.90
67273;DHT22;54190;49.770;9.250;2022-07-04T12:20:27;27.20;48.70
67273;DHT22;54190;49.770;9.250;2022-07-04T12:22:57;27.20;48.50
67273;DHT22;54190;49.770;9.250;2022-07-04T12:25:26;27.30;49.20
67273;DHT22;54190;49.770;9.250;2022-07-04T12:27:59;27.20;47.60
67273;DHT22;54190;49.770;9.250;2022-07-04T12:30:28;27.10;48.70
67273;DHT22;54190;49.770;9.250;2022-07-04T12:33:05;27.10;47.80
67273;DHT22;54190;49.770;9.250;2022-07-04T12:35:32;27.10;47.80
67273;DHT22;54190;49.770;9.250;2022-07-04T12:38:22;27.10;46.20
67273;DHT22;54190;49.770;9.250;2022-07-04T12:41:02;27.20;49.00
67273;DHT22;54190;49.770;9.250;2022-07-04T12:48:36;27.60;47.10
67273;DHT22;54190;49.770;9.250;2022-07-04T12:51:23;27.80;48.50
67273;DHT22;54190;49.770;9.250;2022-07-04T12:53:52;28.10;47.20
67273;DHT22;54190;49.770;9.250;2022-07-04T12:56:34;28.20;45.80
67273;DHT22;54190;49.770;9.250;2022-07-04T12:59:04;28.40;46.20
67273;DHT22;54190;49.770;9.250;2022-07-04T13:01:30;28.60;46.80
67273;DHT22;54190;49.770;9.250;2022-07-04T13:03:57;28.80;45.40
67273;DHT22;54190;49.770;9.250;2022-07-04T13:06:23;28.80;43.60
67273;DHT22;54190;49.770;9.250;2022-07-04T13:08:50;28.70;45.00
67273;DHT22;54190;49.770;9.250;2022-07-04T13:11:16;28.50;44.90
67273;DHT22;54190;49.770;9.250;2022-07-04T13:14:00;28.60;46.70
67273;DHT22;54190;49.770;9.250;2022-07-04T13:16:26;28.60;43.10
67273;DHT22;54190;49.770;9.250;2022-07-04T13:18:51;28.40;43.10
67273;DHT22;54190;49.770;9.250;2022-07-04T13:21:17;28.10;44.60
67273;DHT22;54190;49.770;9.250;2022-07-04T13:23:43;28.20;46.80
67273;DHT22;54190;49.770;9.250;2022-07-04T13:26:09;28.40;44.30
67273;DHT22;54190;49.770;9.250;2022-07-04T13:28:35;28.50;45.20
67273;DHT22;54190;49.770;9.250;2022-07-04T13:31:00;28.70;43.10
67273;DHT22;54190;49.770;9.250;2022-07-04T13:33:27;28.40;44.10
67273;DHT22;54190;49.770;9.250;2022-07-04T13:35:53;28.20;43.30
67273;DHT22;54190;49.770;9.250;2022-07-04T13:38:19;28.00;43.60
67273;DHT22;54190;49.770;9.250;2022-07-04T13:40:45;27.60;44.40
67273;DHT22;54190;49.770;9.250;2022-07-04T13:43:12;27.60;45.40
67273;DHT22;54190;49.770;9.250;2022-07-04T13:45:39;27.60;44.40
67273;DHT22;54190;49.770;9.250;2022-07-04T13:48:06;27.40;45.20
67273;DHT22;54190;49.770;9.250;2022-07-04T13:50:32;27.20;44.70
67273;DHT22;54190;49.770;9.250;2022-07-04T13:53:01;27.20;44.00
67273;DHT22;54190;49.770;9.250;2022-07-04T13:55:26;27.20;44.50
67273;DHT22;54190;49.770;9.250;2022-07-04T13:57:52;27.10;46.00
67273;DHT22;54190;49.770;9.250;2022-07-04T14:00:18;27.10;45.60
67273;DHT22;54190;49.770;9.250;2022-07-04T14:02:43;27.20;45.10
67273;DHT22;54190;49.770;9.250;2022-07-04T14:05:09;27.30;46.20
67273;DHT22;54190;49.770;9.250;2022-07-04T14:07:36;27.30;45.00
67273;DHT22;54190;49.770;9.250;2022-07-04T14:10:02;27.20;43.70
67273;DHT22;54190;49.770;9.250;2022-07-04T14:12:28;27.10;43.40
67273;DHT22;54190;49.770;9.250;2022-07-04T14:14:54;27.00;43.60
67273;DHT22;54190;49.770;9.250;2022-07-04T14:17:20;27.20;45.10
67273;DHT22;54190;49.770;9.250;2022-07-04T14:19:46;27.30;44.30
67273;DHT22;54190;49.770;9.250;2022-07-04T14:22:12;27.20;42.90
67273;DHT22;54190;49.770;9.250;2022-07-04T14:24:38;27.10;43.20
67273;DHT22;54190;49.770;9.250;2022-07-04T14:27:04;27.00;43.60
67273;DHT22;54190;49.770;9.250;2022-07-04T14:29:30;27.10;42.80
67273;DHT22;54190;49.770;9.250;2022-07-04T14:31:55;27.00;42.90
67273;DHT22;54190;49.770;9.250;2022-07-04T14:34:21;27.00;44.70
67273;DHT22;54190;49.770;9.250;2022-07-04T14:36:47;27.10;43.90
67273;DHT22;54190;49.770;9.250;2022-07-04T14:39:13;27.40;44.80
67273;DHT22;54190;49.770;9.250;2022-07-04T14:41:39;27.70;44.00
67273;DHT22;54190;49.770;9.250;2022-07-04T14:44:04;28.00;43.60
67273;DHT22;54190;49.770;9.250;2022-07-04T14:46:30;27.90;42.20
67273;DHT22;54190;49.770;9.250;2022-07-04T14:48:56;27.90;43.50
67273;DHT22;54190;49.770;9.250;2022-07-04T14:51:23;27.90;44.80
67273;DHT22;54190;49.770;9.250;2022-07-04T14:53:50;28.10;41.70
67273;DHT22;54190;49.770;9.250;2022-07-04T14:56:16;28.20;41.40
67273;DHT22;54190;49.770;9.250;2022-07-04T14:58:42;28.30;39.20
67273;DHT22;54190;49.770;9.250;2022-07-04T15:01:08;28.30;38.80
67273;DHT22;54190;49.770;9.250;2022-07-04T15:03:33;28.30;37.80
67273;DHT22;54190;49.770;9.250;2022-07-04T15:05:59;28.10;38.90
67273;DHT22;54190;49.770;9.250;2022-07-04T15:08:25;27.90;39.20
67273;DHT22;54190;49.770;9.250;2022-07-04T15:10:51;27.70;40.30
67273;DHT22;54190;49.770;9.250;2022-07-04T15:13:16;27.50;42.00
67273;DHT22;54190;49.770;9.250;2022-07-04T15:15:42;27.30;42.10
67273;DHT22;54190;49.770;9.250;2022-07-04T15:18:08;27.20;42.60
67273;DHT22;54190;49.770;9.250;2022-07-04T15:20:34;27.30;42.40
67273;DHT22;54190;49.770;9.250;2022-07-04T15:23:18;27.30;42.00
67273;DHT22;54190;49.770;9.250;2022-07-04T15:26:03;27.40;42.20
67273;DHT22;54190;49.770;9.250;2022-07-04T15:28:28;27.60;41.50
67273;DHT22;54190;49.770;9.250;2022-07-04T15:30:54;27.60;40.70
67273;DHT22;54190;49.770;9.250;2022-07-04T15:33:20;27.60;39.20
67273;DHT22;54190;49.770;9.250;2022-07-04T15:35:52;27.50;40.60
67273;DHT22;54190;49.770;9.250;2022-07-04T15:38:19;27.50;41.80
67273;DHT22;54190;49.770;9.250;2022-07-04T15:40:45;27.70;41.00
67273;DHT22;54190;49.770;9.250;2022-07-04T15:43:10;27.90;39.00
67273;DHT22;54190;49.770;9.250;2022-07-04T15:45:36;27.90;40.20
67273;DHT22;54190;49.770;9.250;2022-07-04T15:48:02;27.80;41.50
67273;DHT22;54190;49.770;9.250;2022-07-04T15:50:28;28.00;40.50
67273;DHT22;54190;49.770;9.250;2022-07-04T15:52:54;28.10;39.70
67273;DHT22;54190;49.770;9.250;2022-07-04T15:55:20;27.90;38.40
67273;DHT22;54190;49.770;9.250;2022-07-04T15:57:45;27.70;40.50
67273;DHT22;54190;49.770;9.250;2022-07-04T16:00:12;27.80;40.20
67273;DHT22;54190;49.770;9.250;2022-07-04T16:02:38;27.70;40.20
67273;DHT22;54190;49.770;9.250;2022-07-04T16:05:04;27.80;42.00